createdAt,value
2018-09-19T00:00:18.288Z,51.70
2018-09-19T00:02:47.141Z,51.80
2018-09-19T00:05:15.726Z,52.00
2018-09-19T00:07:44.386Z,52.40
2018-09-19T00:10:13.232Z,52.70
2018-09-19T00:12:41.894Z,53.10
2018-09-19T00:15:10.796Z,53.00
2018-09-19T00:17:40.147Z,53.10
2018-09-19T00:20:08.425Z,53.50
2018-09-19T00:22:37.736Z,53.90
2018-09-19T00:25:06.322Z,54.20
2018-09-19T00:27:34.600Z,54.40
2018-09-19T00:30:02.909Z,54.40
2018-09-19T00:32:31.283Z,55.00
2018-09-19T00:34:59.487Z,55.10
2018-09-19T00:37:28.420Z,55.10
2018-09-19T00:39:56.887Z,55.50
2018-09-19T00:42:25.103Z,55.10
2018-09-19T00:44:53.340Z,55.00
2018-09-19T00:47:21.829Z,54.20
2018-09-19T00:49:50.639Z,54.30
2018-09-19T00:52:18.867Z,54.00
2018-09-19T00:54:47.198Z,53.10
2018-09-19T00:57:15.517Z,53.70
2018-09-19T00:59:43.753Z,53.40
2018-09-19T01:02:11.966Z,53.40
2018-09-19T01:04:41.037Z,53.60
2018-09-19T01:07:09.356Z,54.70
2018-09-19T01:09:38.212Z,54.10
2018-09-19T01:12:06.538Z,54.90
2018-09-19T01:14:34.786Z,54.60
2018-09-19T01:17:03.040Z,54.60
2018-09-19T01:19:31.462Z,55.10
2018-09-19T01:21:59.825Z,55.20
2018-09-19T01:24:28.381Z,55.70
2018-09-19T01:27:04.797Z,55.80
2018-09-19T01:29:33.642Z,56.10
2018-09-19T01:32:02.377Z,56.30
2018-09-19T01:34:30.711Z,56.20
2018-09-19T01:37:02.602Z,56.20
2018-09-19T01:39:32.732Z,56.50
2018-09-19T01:42:01.066Z,56.70
2018-09-19T01:44:29.447Z,56.20
2018-09-19T01:46:58.315Z,56.20
2018-09-19T01:49:26.824Z,56.80
2018-09-19T01:51:55.501Z,56.30
2018-09-19T01:54:24.857Z,55.60
2018-09-19T01:56:54.024Z,56.10
2018-09-19T01:59:22.402Z,55.70
2018-09-19T02:01:51.162Z,56.20
2018-09-19T02:04:20.345Z,55.60
2018-09-19T02:06:49.033Z,56.20
2018-09-19T02:09:17.572Z,55.70
2018-09-19T02:11:46.530Z,56.20
2018-09-19T02:14:14.773Z,56.90
2018-09-19T02:16:43.392Z,57.30
2018-09-19T02:19:12.042Z,57.70
2018-09-19T02:21:40.384Z,57.90
2018-09-19T02:24:08.633Z,58.30
2018-09-19T02:26:37.029Z,58.70
2018-09-19T02:29:05.516Z,59.10
2018-09-19T02:31:34.128Z,59.90
2018-09-19T02:34:02.484Z,59.20
2018-09-19T02:36:30.832Z,59.20
2018-09-19T02:38:59.340Z,59.20
2018-09-19T02:41:28.330Z,59.30
2018-09-19T02:43:56.659Z,59.50
2018-09-19T02:46:24.937Z,59.20
2018-09-19T02:48:53.207Z,59.20
2018-09-19T02:51:22.098Z,58.80
2018-09-19T02:53:50.888Z,59.20
2018-09-19T02:56:19.169Z,59.40
2018-09-19T02:58:47.476Z,59.40
2018-09-19T03:01:15.791Z,60.00
2018-09-19T03:03:44.031Z,60.20
2018-09-19T03:06:13.096Z,60.40
2018-09-19T03:08:41.778Z,60.90
2018-09-19T03:11:10.191Z,60.80
2018-09-19T03:13:38.666Z,61.20
2018-09-19T03:16:08.048Z,61.30
2018-09-19T03:18:37.008Z,61.10
2018-09-19T03:21:05.992Z,61.10
2018-09-19T03:23:34.215Z,61.50
2018-09-19T03:26:02.492Z,61.60
2018-09-19T03:28:30.741Z,62.20
2018-09-19T03:30:58.999Z,63.40
2018-09-19T03:33:27.210Z,62.40
2018-09-19T03:35:55.520Z,62.20
2018-09-19T03:38:23.773Z,62.50
2018-09-19T03:40:52.354Z,62.50
2018-09-19T03:43:20.988Z,62.60
2018-09-19T03:45:50.239Z,62.90
2018-09-19T03:48:19.072Z,63.00
2018-09-19T03:50:47.614Z,62.70
2018-09-19T03:53:15.973Z,63.30
2018-09-19T03:55:44.398Z,62.70
2018-09-19T03:58:12.725Z,63.30
2018-09-19T04:00:41.992Z,63.70
2018-09-19T04:03:10.250Z,63.70
2018-09-19T04:05:39.176Z,63.50
2018-09-19T04:08:07.822Z,63.20
2018-09-19T04:10:36.745Z,63.80
2018-09-19T04:13:05.132Z,64.30
2018-09-19T04:15:33.802Z,63.80
2018-09-19T04:18:02.697Z,63.80
2018-09-19T04:20:31.241Z,65.00
2018-09-19T04:23:00.193Z,64.10
2018-09-19T04:25:29.368Z,64.10
2018-09-19T04:27:57.663Z,64.50
2018-09-19T04:30:25.905Z,64.70
2018-09-19T04:32:54.398Z,65.20
2018-09-19T04:35:23.909Z,65.80
2018-09-19T04:37:52.162Z,65.50
2018-09-19T04:40:20.442Z,65.70
2018-09-19T04:42:49.267Z,66.10
2018-09-19T04:45:17.699Z,65.80
2018-09-19T04:47:45.850Z,66.00
2018-09-19T04:50:15.087Z,66.00
2018-09-19T04:52:43.588Z,65.90
2018-09-19T04:55:12.148Z,65.90
2018-09-19T04:57:41.091Z,66.00
2018-09-19T05:00:09.901Z,66.20
2018-09-19T05:02:38.345Z,66.10
2018-09-19T05:07:35.327Z,65.60
2018-09-19T05:10:03.681Z,66.20
2018-09-19T05:12:32.078Z,65.00
2018-09-19T05:15:00.364Z,66.40
2018-09-19T05:17:28.612Z,66.30
2018-09-19T05:19:57.101Z,66.40
2018-09-19T05:22:26.489Z,65.70
2018-09-19T05:24:54.757Z,66.20
2018-09-19T05:27:23.341Z,66.20
2018-09-19T05:34:48.837Z,65.50
2018-09-19T05:37:18.396Z,66.00
2018-09-19T05:39:47.235Z,66.70
2018-09-19T05:42:16.103Z,65.70
2018-09-19T05:44:44.520Z,65.50
2018-09-19T05:47:12.856Z,64.50
2018-09-19T05:49:41.307Z,65.20
2018-09-19T05:52:09.551Z,65.30
2018-09-19T05:54:37.893Z,65.30
2018-09-19T05:57:06.412Z,65.00
2018-09-19T05:59:34.764Z,64.60
2018-09-19T06:02:04.354Z,64.00
2018-09-19T06:04:32.636Z,63.80
2018-09-19T06:07:01.016Z,63.40
2018-09-19T06:09:29.266Z,63.30
2018-09-19T06:11:58.180Z,62.80
2018-09-19T06:14:26.664Z,61.40
2018-09-19T06:16:54.941Z,62.00
2018-09-19T06:19:23.903Z,61.80
2018-09-19T06:21:52.418Z,61.30
2018-09-19T06:24:21.108Z,59.90
2018-09-19T06:26:49.342Z,60.50
2018-09-19T06:29:18.014Z,59.60
2018-09-19T06:31:46.284Z,58.90
2018-09-19T06:34:14.802Z,58.20
2018-09-19T06:36:43.084Z,58.80
2018-09-19T06:39:11.602Z,58.50
2018-09-19T06:41:39.912Z,58.40
2018-09-19T06:44:09.108Z,58.40
2018-09-19T06:46:37.605Z,58.00
2018-09-19T06:49:06.561Z,57.10
2018-09-19T06:51:34.827Z,57.50
2018-09-19T06:54:03.716Z,56.60
2018-09-19T06:56:32.177Z,57.00
2018-09-19T06:59:00.375Z,56.40
2018-09-19T07:01:28.751Z,56.00
2018-09-19T07:03:57.033Z,56.60
2018-09-19T07:06:25.286Z,55.90
2018-09-19T07:08:53.547Z,55.40
2018-09-19T07:11:22.668Z,54.90
2018-09-19T07:13:51.269Z,54.80
2018-09-19T07:16:20.321Z,54.40
2018-09-19T07:18:48.672Z,54.60
2018-09-19T07:21:17.204Z,54.10
2018-09-19T07:23:45.431Z,53.40
2018-09-19T07:26:13.843Z,53.40
2018-09-19T07:28:42.347Z,52.20
2018-09-19T07:31:10.591Z,52.70
2018-09-19T07:33:39.356Z,52.30
2018-09-19T07:36:07.602Z,51.30
2018-09-19T07:38:36.173Z,51.20
2018-09-19T07:41:04.596Z,51.70
2018-09-19T07:43:34.108Z,51.60
2018-09-19T07:46:02.304Z,51.60
2018-09-19T07:48:30.626Z,51.40
2018-09-19T07:50:59.273Z,51.20
2018-09-19T07:53:35.344Z,50.70
2018-09-19T07:56:04.785Z,50.00
2018-09-19T07:58:34.475Z,50.00
2018-09-19T08:01:02.736Z,49.80
2018-09-19T08:03:32.160Z,49.20
2018-09-19T08:06:00.862Z,49.20
2018-09-19T08:08:29.688Z,48.70
2018-09-19T08:10:58.043Z,48.10
2018-09-19T08:13:27.489Z,48.30
2018-09-19T08:15:56.512Z,48.30
2018-09-19T08:18:24.790Z,48.30
2018-09-19T08:20:53.417Z,48.10
2018-09-19T08:23:21.688Z,47.70
2018-09-19T08:25:50.626Z,47.50
2018-09-19T08:28:19.112Z,47.10
2018-09-19T08:30:47.706Z,46.60
2018-09-19T08:33:16.050Z,46.00
2018-09-19T08:35:44.587Z,44.70
2018-09-19T08:38:13.244Z,45.00
2018-09-19T08:40:41.731Z,44.70
2018-09-19T08:43:10.490Z,43.80
2018-09-19T08:45:39.766Z,43.60
2018-09-19T08:48:08.061Z,44.10
2018-09-19T08:50:37.216Z,43.20
2018-09-19T08:53:06.326Z,42.50
2018-09-19T08:55:34.544Z,42.10
2018-09-19T08:58:02.918Z,42.20
2018-09-19T09:00:31.231Z,42.10
2018-09-19T09:02:59.604Z,42.30
2018-09-19T09:05:28.644Z,42.90
2018-09-19T09:07:57.125Z,41.40
2018-09-19T09:10:26.525Z,42.20
2018-09-19T09:12:56.706Z,42.50
2018-09-19T09:15:25.942Z,40.40
2018-09-19T09:17:55.396Z,41.80
2018-09-19T09:20:24.210Z,41.00
2018-09-19T09:22:54.255Z,40.40
2018-09-19T09:25:22.480Z,40.60
2018-09-19T09:27:50.818Z,39.70
2018-09-19T09:30:19.229Z,39.90
2018-09-19T09:32:47.997Z,40.70
2018-09-19T09:35:16.273Z,38.90
2018-09-19T09:37:44.682Z,39.50
2018-09-19T09:40:13.171Z,37.60
2018-09-19T09:42:42.950Z,38.10
2018-09-19T09:45:11.204Z,37.70
2018-09-19T09:47:39.880Z,37.10
2018-09-19T09:50:10.103Z,36.50
2018-09-19T09:52:38.664Z,36.40
2018-09-19T09:55:06.956Z,35.70
2018-09-19T09:57:35.198Z,34.70
2018-09-19T10:00:03.560Z,34.20
2018-09-19T10:02:32.624Z,32.90
2018-09-19T10:05:00.854Z,32.70
2018-09-19T10:07:29.095Z,31.80
2018-09-19T10:09:58.355Z,31.20
2018-09-19T10:12:26.593Z,31.30
2018-09-19T10:14:55.466Z,30.70
2018-09-19T10:17:24.000Z,30.80
2018-09-19T10:19:52.228Z,30.30
2018-09-19T10:22:20.912Z,30.00
2018-09-19T10:24:49.125Z,29.60
2018-09-19T10:27:17.500Z,30.00
2018-09-19T10:29:46.128Z,29.80
2018-09-19T10:32:14.609Z,29.50
2018-09-19T10:34:42.885Z,29.00
2018-09-19T10:37:11.614Z,28.50
2018-09-19T10:39:39.864Z,28.30
2018-09-19T10:42:08.518Z,27.10
2018-09-19T10:44:36.720Z,27.40
2018-09-19T10:47:05.898Z,26.60
2018-09-19T10:52:07.336Z,26.60
2018-09-19T10:54:35.655Z,27.00
2018-09-19T10:57:06.078Z,26.60
2018-09-19T10:59:34.557Z,27.00
2018-09-19T11:02:04.367Z,27.00
2018-09-19T11:04:33.283Z,27.00
2018-09-19T11:07:02.810Z,26.20
2018-09-19T11:09:32.175Z,25.60
2018-09-19T11:12:01.283Z,25.90
2018-09-19T11:14:30.092Z,25.20
2018-09-19T11:16:58.486Z,25.70
2018-09-19T11:19:27.102Z,25.70
2018-09-19T11:21:55.343Z,26.40
2018-09-19T11:24:25.078Z,25.30
2018-09-19T11:26:55.269Z,24.90
2018-09-19T11:29:25.792Z,25.50
2018-09-19T11:31:56.002Z,24.70
2018-09-19T11:34:24.412Z,23.90
2018-09-19T11:36:52.761Z,24.40
2018-09-19T11:39:21.050Z,25.00
2018-09-19T11:41:49.393Z,25.00
2018-09-19T11:44:18.511Z,24.80
2018-09-19T11:46:46.687Z,24.80
2018-09-19T11:49:15.197Z,24.40
2018-09-19T11:51:43.843Z,24.60
2018-09-19T11:54:12.739Z,24.50
2018-09-19T11:56:41.366Z,24.50
2018-09-19T11:59:09.644Z,24.30
2018-09-19T12:01:43.782Z,24.50
2018-09-19T12:04:12.106Z,23.60
2018-09-19T12:06:40.480Z,24.00
2018-09-19T12:09:11.310Z,24.30
2018-09-19T12:11:39.658Z,24.00
2018-09-19T12:14:08.037Z,23.60
2018-09-19T12:16:37.544Z,23.70
2018-09-19T12:19:07.091Z,23.70
2018-09-19T12:21:35.700Z,23.70
2018-09-19T12:24:04.902Z,23.80
2018-09-19T12:26:33.421Z,23.80
2018-09-19T12:29:02.487Z,23.40
2018-09-19T12:31:31.115Z,23.50
2018-09-19T12:33:59.644Z,23.40
2018-09-19T12:36:28.574Z,23.00
2018-09-19T12:38:56.790Z,23.20
2018-09-19T12:41:25.027Z,23.80
2018-09-19T12:43:53.525Z,23.90
2018-09-19T12:46:22.452Z,23.30
2018-09-19T12:48:57.866Z,22.80
2018-09-19T12:51:26.176Z,23.20
2018-09-19T12:53:54.436Z,23.20
2018-09-19T12:56:22.808Z,23.20
2018-09-19T12:58:51.096Z,23.10
2018-09-19T13:01:20.184Z,23.70
2018-09-19T13:03:48.472Z,22.70
2018-09-19T13:06:16.695Z,22.60
2018-09-19T13:08:44.942Z,22.00
2018-09-19T13:11:13.772Z,22.20
2018-09-19T13:13:42.808Z,22.40
2018-09-19T13:16:11.128Z,22.30
2018-09-19T13:18:39.436Z,22.20
2018-09-19T13:21:08.146Z,21.80
2018-09-19T13:23:36.398Z,22.20
2018-09-19T13:26:04.816Z,21.20
2018-09-19T13:28:33.310Z,20.70
2018-09-19T13:31:01.880Z,20.40
2018-09-19T13:33:30.204Z,20.40
2018-09-19T13:35:58.726Z,19.60
2018-09-19T13:38:27.046Z,18.20
2018-09-19T13:40:55.375Z,17.70
2018-09-19T13:43:23.926Z,16.10
2018-09-19T13:45:52.418Z,15.30
2018-09-19T13:48:20.941Z,15.80
2018-09-19T13:51:01.425Z,16.10
2018-09-19T13:53:29.730Z,15.70
2018-09-19T13:55:58.006Z,15.20
2018-09-19T13:58:26.608Z,16.30
2018-09-19T14:00:55.067Z,15.70
2018-09-19T14:03:23.596Z,14.90
2018-09-19T14:05:51.865Z,14.10
2018-09-19T14:08:21.737Z,13.60
2018-09-19T14:10:51.439Z,12.90
2018-09-19T14:13:19.980Z,13.60
2018-09-19T14:15:48.523Z,13.90
2018-09-19T14:18:16.770Z,13.30
2018-09-19T14:20:45.528Z,13.40
2018-09-19T14:23:13.755Z,13.00
2018-09-19T14:25:42.055Z,13.60
2018-09-19T14:28:10.568Z,13.70
2018-09-19T14:30:38.991Z,13.90
2018-09-19T14:33:07.502Z,13.00
2018-09-19T14:35:35.759Z,13.00
2018-09-19T14:38:05.144Z,12.20
2018-09-19T14:40:33.311Z,13.30
2018-09-19T14:43:01.828Z,13.70
2018-09-19T14:45:30.297Z,14.20
2018-09-19T14:47:58.569Z,14.00
2018-09-19T14:50:26.870Z,13.30
2018-09-19T14:52:55.376Z,13.10
2018-09-19T14:55:23.624Z,14.00
2018-09-19T14:57:52.151Z,14.10
2018-09-19T15:00:21.334Z,14.20
2018-09-19T15:02:49.830Z,13.70
2018-09-19T15:05:18.130Z,13.10
2018-09-19T15:07:47.000Z,12.90
2018-09-19T15:10:16.206Z,12.90
2018-09-19T15:12:44.522Z,12.70
2018-09-19T15:15:13.029Z,13.10
2018-09-19T15:17:41.530Z,13.10
2018-09-19T15:20:09.740Z,13.60
2018-09-19T15:22:38.324Z,13.30
2018-09-19T15:25:06.933Z,13.60
2018-09-19T15:27:35.215Z,12.80
2018-09-19T15:30:04.118Z,13.00
2018-09-19T15:32:32.604Z,13.20
2018-09-19T15:35:00.868Z,13.20
2018-09-19T15:37:29.561Z,12.80
2018-09-19T15:39:58.208Z,12.60
2018-09-19T15:42:26.477Z,13.10
2018-09-19T15:44:54.853Z,13.20
2018-09-19T15:47:23.730Z,13.30
2018-09-19T15:49:51.995Z,13.20
2018-09-19T15:52:20.545Z,12.60
2018-09-19T15:54:49.080Z,13.30
2018-09-19T15:57:17.691Z,14.10
2018-09-19T15:59:45.836Z,14.20
2018-09-19T16:02:14.268Z,14.60
2018-09-19T16:04:42.978Z,15.10
2018-09-19T16:07:11.993Z,15.50
2018-09-19T16:09:40.260Z,16.00
2018-09-19T16:12:08.446Z,16.20
2018-09-19T16:14:36.964Z,16.70
2018-09-19T16:17:05.561Z,17.30
2018-09-19T16:19:33.813Z,18.10
2018-09-19T16:22:02.328Z,19.00
2018-09-19T16:24:30.570Z,19.90
2018-09-19T16:26:59.356Z,20.30
2018-09-19T16:29:27.900Z,21.40
2018-09-19T16:31:56.480Z,22.10
2018-09-19T16:34:24.983Z,23.00
2018-09-19T16:36:53.263Z,23.10
2018-09-19T16:39:22.488Z,23.50
2018-09-19T16:41:50.705Z,23.90
2018-09-19T16:44:19.375Z,24.40
2018-09-19T16:46:48.043Z,24.90
2018-09-19T16:49:16.560Z,25.00
2018-09-19T16:51:44.918Z,25.50
2018-09-19T16:54:13.571Z,25.70
2018-09-19T16:56:42.504Z,26.10
2018-09-19T16:59:10.754Z,26.40
2018-09-19T17:01:39.815Z,26.60
2018-09-19T17:04:08.153Z,26.70
2018-09-19T17:06:37.057Z,27.10
2018-09-19T17:09:07.482Z,27.10
2018-09-19T17:11:35.897Z,27.50
2018-09-19T17:14:04.978Z,27.80
2018-09-19T17:16:33.741Z,28.10
2018-09-19T17:19:03.002Z,28.50
2018-09-19T17:21:31.314Z,28.80
2018-09-19T17:24:00.013Z,29.20
2018-09-19T17:26:28.195Z,29.30
2018-09-19T17:28:57.047Z,29.20
2018-09-19T17:33:53.850Z,30.30
2018-09-19T17:36:22.047Z,30.90
2018-09-19T17:38:50.348Z,30.90
2018-09-19T17:41:18.859Z,31.30
2018-09-19T17:43:47.685Z,32.00
2018-09-19T17:46:16.170Z,33.00
2018-09-19T17:48:44.420Z,32.70
2018-09-19T17:51:12.650Z,33.20
2018-09-19T17:53:40.927Z,33.60
2018-09-19T17:56:09.250Z,34.70
2018-09-19T17:58:37.569Z,34.40
2018-09-19T18:01:05.773Z,34.80
2018-09-19T18:03:34.109Z,35.30
2018-09-19T18:06:02.768Z,35.10
2018-09-19T18:08:31.066Z,35.10
2018-09-19T18:10:59.616Z,35.20
2018-09-19T18:15:59.313Z,34.90
2018-09-19T18:18:29.589Z,35.50
2018-09-19T18:20:59.020Z,35.40
2018-09-19T18:23:28.240Z,35.40
2018-09-19T18:25:57.553Z,36.30
2018-09-19T18:28:26.188Z,37.00
2018-09-19T18:30:55.357Z,37.10
2018-09-19T18:33:24.598Z,37.60
2018-09-19T18:35:54.233Z,38.20
2018-09-19T18:38:23.620Z,38.20
2018-09-19T18:40:53.545Z,38.50
2018-09-19T18:43:22.907Z,38.90
2018-09-19T18:45:52.358Z,39.70
2018-09-19T18:48:21.875Z,40.20
2018-09-19T18:50:50.813Z,40.10
2018-09-19T18:53:20.134Z,40.00
2018-09-19T18:55:49.772Z,40.10
2018-09-19T18:58:19.742Z,40.60
2018-09-19T19:00:49.084Z,40.40
2018-09-19T19:03:18.408Z,40.30
2018-09-19T19:05:46.716Z,40.70
2018-09-19T19:08:16.424Z,41.20
2018-09-19T19:10:45.513Z,41.70
2018-09-19T19:13:14.285Z,41.80
2018-09-19T19:15:43.652Z,42.10
2018-09-19T19:18:12.601Z,42.50
2018-09-19T19:20:42.333Z,42.70
2018-09-19T19:23:10.660Z,43.00
2018-09-19T19:25:39.530Z,43.30
2018-09-19T19:28:07.779Z,43.40
2018-09-19T19:30:37.019Z,43.40
2018-09-19T19:33:05.450Z,43.00
2018-09-19T19:35:33.788Z,43.30
2018-09-19T19:38:02.489Z,43.50
2018-09-19T19:40:30.725Z,43.90
2018-09-19T19:42:59.050Z,45.10
2018-09-19T19:45:27.410Z,44.50
2018-09-19T19:47:55.684Z,44.50
2018-09-19T19:50:23.968Z,44.50
2018-09-19T19:52:52.564Z,45.00
2018-09-19T19:55:21.085Z,44.80
2018-09-19T19:57:49.740Z,45.10
2018-09-19T20:00:18.645Z,45.50
2018-09-19T20:02:47.661Z,45.90
2018-09-19T20:05:16.631Z,46.10
2018-09-19T20:07:45.253Z,45.80
2018-09-19T20:10:13.788Z,46.30
2018-09-19T20:12:42.012Z,46.80
2018-09-19T20:15:10.214Z,47.00
2018-09-19T20:17:38.663Z,47.10
2018-09-19T20:20:07.192Z,47.30
2018-09-19T20:22:35.441Z,47.30
2018-09-19T20:25:05.886Z,47.20
2018-09-19T20:27:41.073Z,47.50
2018-09-19T20:30:09.561Z,48.00
2018-09-19T20:32:37.773Z,48.00
2018-09-19T20:35:06.055Z,48.20
2018-09-19T20:37:34.843Z,48.40
2018-09-19T20:40:03.649Z,48.30
2018-09-19T20:42:31.905Z,48.70
2018-09-19T20:45:00.445Z,48.20
2018-09-19T20:47:28.918Z,48.80
2018-09-19T20:49:57.503Z,48.80
2018-09-19T20:52:25.701Z,48.50
2018-09-19T20:54:53.913Z,49.10
2018-09-19T20:57:22.535Z,49.30
2018-09-19T20:59:51.043Z,49.70
2018-09-19T21:02:19.317Z,49.60
2018-09-19T21:04:47.680Z,50.10
2018-09-19T21:07:15.948Z,50.50
2018-09-19T21:09:44.321Z,50.50
2018-09-19T21:12:12.693Z,51.10
2018-09-19T21:14:41.096Z,51.20
2018-09-19T21:17:10.184Z,50.90
2018-09-19T21:19:38.816Z,51.30
2018-09-19T21:22:08.059Z,51.90
2018-09-19T21:24:36.949Z,51.70
2018-09-19T21:27:05.966Z,51.90
2018-09-19T21:29:34.340Z,51.90
2018-09-19T21:32:03.904Z,51.50
2018-09-19T21:34:32.169Z,51.90
2018-09-19T21:37:00.860Z,52.20
2018-09-19T21:39:29.134Z,52.20
2018-09-19T21:41:57.463Z,52.80
2018-09-19T21:44:25.663Z,52.70
2018-09-19T21:46:54.621Z,53.00
2018-09-19T21:49:23.381Z,53.10
2018-09-19T21:51:51.633Z,52.50
2018-09-19T21:54:20.608Z,53.10
2018-09-19T21:56:50.505Z,53.10
2018-09-19T21:59:18.949Z,53.60
2018-09-19T22:01:51.699Z,53.50
2018-09-19T22:04:20.108Z,53.80
2018-09-19T22:06:52.229Z,53.70
2018-09-19T22:09:20.648Z,53.20
2018-09-19T22:11:49.228Z,53.90
2018-09-19T22:14:17.576Z,54.40
2018-09-19T22:16:45.938Z,54.30
2018-09-19T22:19:15.205Z,54.60
2018-09-19T22:21:43.463Z,55.00
2018-09-19T22:24:12.251Z,55.30
2018-09-19T22:26:40.762Z,55.30
2018-09-19T22:29:09.340Z,55.20
2018-09-19T22:31:37.625Z,55.20
2018-09-19T22:34:06.233Z,55.70
2018-09-19T22:36:35.021Z,56.10
2018-09-19T22:39:04.095Z,56.00
2018-09-19T22:41:32.556Z,55.90
2018-09-19T22:46:29.512Z,55.60
2018-09-19T22:48:58.318Z,56.30
2018-09-19T22:51:26.772Z,56.20
2018-09-19T22:53:55.317Z,56.20
2018-09-19T22:56:23.571Z,56.40
2018-09-19T22:58:52.108Z,57.50
2018-09-19T23:01:20.462Z,56.50
2018-09-19T23:03:49.093Z,57.00
2018-09-19T23:06:17.545Z,56.90
2018-09-19T23:08:46.378Z,57.00
2018-09-19T23:11:14.662Z,57.40
2018-09-19T23:13:42.957Z,57.30
2018-09-19T23:19:20.746Z,56.70
2018-09-19T23:21:48.960Z,57.40
2018-09-19T23:24:17.564Z,57.90
2018-09-19T23:26:45.782Z,57.40
2018-09-19T23:29:14.455Z,58.40
2018-09-19T23:31:42.705Z,57.20
2018-09-19T23:34:11.532Z,57.60
2018-09-19T23:36:39.925Z,57.00
2018-09-19T23:39:09.595Z,57.50
2018-09-19T23:41:37.812Z,57.30
2018-09-19T23:44:06.241Z,57.80
2018-09-19T23:46:34.504Z,57.60
2018-09-19T23:49:02.957Z,58.10
2018-09-19T23:51:31.255Z,58.00
2018-09-19T23:53:59.497Z,57.90
2018-09-19T23:56:28.089Z,57.70
2018-09-19T23:58:56.337Z,58.10
